Ballymahon, Ireland
Current Conditions -  °F | °C
As of 1:30 PM on Thursday 30 Oct 2014 (Local Time) from EIKN Reporting Station
Drizzle Drizzle  
Wind Chill: 57°   Ceiling: 1100
Heat Index: 57°   Visibility: 6mi
Dew Point: 55°   Wind: 16mph
Humidity: 94%   Direction: 170°S
Pressure: 29.74"   Gusts: NA
Location:  53.56°N, 7.77°W
Report Text: EIKN 301330Z 17014KT 140V220 9999 -DZ BKN011 BKN031 14/13 Q1007 NOSIG
Loading
Personal Weather Stations






























Interactive Weather Map New forecast layout! Learn more

10-Day Weather Forecast

Advertisements
Track Severe Weather on mobile